createdAt,value
2017-12-12T00:00:07.513Z,927.11
2017-12-12T00:01:07.497Z,927.23
2017-12-12T00:02:07.490Z,927.15
2017-12-12T00:03:07.469Z,927.06
2017-12-12T00:04:07.469Z,927.07
2017-12-12T00:05:07.436Z,927.11
2017-12-12T00:06:07.427Z,927.18
2017-12-12T00:07:07.407Z,927.24
2017-12-12T00:08:07.392Z,927.22
2017-12-12T00:09:07.393Z,927.21
2017-12-12T00:10:07.363Z,927.33
2017-12-12T00:11:07.348Z,927.3
2017-12-12T00:12:07.332Z,927.33
2017-12-12T00:13:07.317Z,927.36
2017-12-12T00:14:07.314Z,927.28
2017-12-12T00:15:07.288Z,927.3
2017-12-12T00:16:07.272Z,927.38
2017-12-12T00:17:07.257Z,927.15
2017-12-12T00:18:07.242Z,927.37
2017-12-12T00:19:07.227Z,927.39
2017-12-12T00:20:07.212Z,927.38
2017-12-12T00:21:07.196Z,927.46
2017-12-12T00:22:07.183Z,927.59
2017-12-12T00:23:07.168Z,927.56
2017-12-12T00:24:07.160Z,927.53
2017-12-12T00:25:07.136Z,927.55
2017-12-12T00:26:07.122Z,927.58
2017-12-12T00:27:07.105Z,927.6
2017-12-12T00:28:07.092Z,927.56
2017-12-12T00:29:07.079Z,927.65
2017-12-12T00:30:07.061Z,927.61
2017-12-12T00:31:07.045Z,927.67
2017-12-12T00:32:07.031Z,927.59
2017-12-12T00:33:07.015Z,927.62
2017-12-12T00:34:07.000Z,927.68
2017-12-12T00:35:06.988Z,927.6
2017-12-12T00:36:06.971Z,927.77
2017-12-12T00:37:06.956Z,927.76
2017-12-12T00:38:06.940Z,927.75
2017-12-12T00:39:06.924Z,927.79
2017-12-12T00:40:06.910Z,927.87
2017-12-12T00:41:06.894Z,927.78
2017-12-12T00:42:06.878Z,927.8
2017-12-12T00:43:06.876Z,927.76
2017-12-12T00:44:06.849Z,927.73
2017-12-12T00:45:06.841Z,927.89
2017-12-12T00:46:06.820Z,928.1
2017-12-12T00:47:06.808Z,928.04
2017-12-12T00:48:06.790Z,928.03
2017-12-12T00:49:06.775Z,927.97
2017-12-12T00:50:06.759Z,927.89
2017-12-12T00:51:06.749Z,927.95
2017-12-12T00:52:06.729Z,928.03
2017-12-12T00:53:06.715Z,928
2017-12-12T00:54:06.699Z,928.01
2017-12-12T00:55:06.683Z,928.09
2017-12-12T00:56:06.667Z,928.18
2017-12-12T00:57:06.664Z,928.15
2017-12-12T00:58:06.639Z,928.11
2017-12-12T00:59:06.623Z,928.14
2017-12-12T01:00:06.607Z,928.14
2017-12-12T01:01:06.593Z,928.24
2017-12-12T01:02:06.578Z,928.22
2017-12-12T01:03:06.561Z,928.15
2017-12-12T01:04:06.546Z,928.23
2017-12-12T01:05:06.543Z,928.11
2017-12-12T01:06:06.517Z,928.13
2017-12-12T01:07:06.502Z,928.15
2017-12-12T01:08:06.487Z,928.06
2017-12-12T01:09:06.472Z,928.1
2017-12-12T01:10:06.457Z,928.07
2017-12-12T01:11:06.443Z,928.13
2017-12-12T01:12:06.427Z,928.09
2017-12-12T01:13:06.413Z,928.15
2017-12-12T01:14:06.401Z,928.25
2017-12-12T01:15:06.381Z,928.28
2017-12-12T01:16:06.368Z,928.26
2017-12-12T01:17:06.358Z,928.33
2017-12-12T01:18:06.336Z,928.41
2017-12-12T01:19:06.323Z,928.42
2017-12-12T01:20:06.306Z,928.39
2017-12-12T01:21:06.290Z,928.37
2017-12-12T01:22:06.294Z,928.47
2017-12-12T01:23:06.262Z,928.51
2017-12-12T01:24:06.246Z,928.53
2017-12-12T01:25:06.230Z,928.56
2017-12-12T01:26:06.215Z,928.55
2017-12-12T01:27:06.201Z,928.48
2017-12-12T01:28:06.185Z,928.64
2017-12-12T01:29:06.169Z,928.61
2017-12-12T01:30:06.154Z,928.62
2017-12-12T01:31:06.139Z,928.51
2017-12-12T01:32:06.123Z,928.71
2017-12-12T01:33:06.110Z,928.79
2017-12-12T01:34:06.094Z,928.79
2017-12-12T01:35:06.079Z,928.78
2017-12-12T01:36:06.063Z,928.77
2017-12-12T01:37:06.050Z,928.78
2017-12-12T01:38:06.034Z,928.81
2017-12-12T01:39:06.019Z,928.79
2017-12-12T01:40:06.003Z,928.75
2017-12-12T01:41:05.986Z,928.85
2017-12-12T01:42:05.973Z,928.77
2017-12-12T01:43:05.956Z,928.84
2017-12-12T01:44:05.945Z,928.84
2017-12-12T01:45:05.930Z,928.81
2017-12-12T01:46:05.925Z,928.92
2017-12-12T01:47:05.896Z,928.88
2017-12-12T01:48:05.883Z,928.9
2017-12-12T01:49:05.886Z,928.86
2017-12-12T01:50:05.852Z,928.9
2017-12-12T01:51:05.835Z,928.88
2017-12-12T01:52:05.821Z,928.84
2017-12-12T01:53:05.807Z,928.74
2017-12-12T01:54:05.788Z,928.87
2017-12-12T01:55:05.774Z,928.73
2017-12-12T01:56:05.760Z,928.85
2017-12-12T01:57:05.744Z,928.86
2017-12-12T01:58:05.729Z,928.87
2017-12-12T01:59:05.713Z,928.96
2017-12-12T02:00:05.720Z,928.98
2017-12-12T02:01:05.683Z,929.01
2017-12-12T02:02:05.669Z,928.98
2017-12-12T02:03:05.652Z,929.01
2017-12-12T02:04:05.639Z,929.06
2017-12-12T02:05:05.621Z,929.02
2017-12-12T02:06:05.608Z,929.08
2017-12-12T02:07:05.592Z,929.01
2017-12-12T02:08:05.577Z,929.05
2017-12-12T02:09:05.561Z,929.24
2017-12-12T02:10:05.548Z,929.09
2017-12-12T02:11:05.531Z,928.97
2017-12-12T02:12:05.519Z,928.89
2017-12-12T02:13:05.500Z,929.07
2017-12-12T02:14:05.485Z,929.05
2017-12-12T02:15:05.471Z,929.01
2017-12-12T02:16:05.456Z,929.16
2017-12-12T02:17:05.440Z,929.17
2017-12-12T02:18:05.425Z,928.97
2017-12-12T02:19:05.411Z,929.11
2017-12-12T02:20:05.399Z,929.16
2017-12-12T02:21:05.379Z,929.23
2017-12-12T02:22:05.365Z,929.14
2017-12-12T02:23:05.368Z,929.15
2017-12-12T02:24:05.333Z,929.23
2017-12-12T02:25:05.319Z,929.24
2017-12-12T02:26:05.308Z,929.14
2017-12-12T02:27:05.297Z,929.23
2017-12-12T02:28:05.272Z,929.19
2017-12-12T02:29:05.275Z,929.35
2017-12-12T02:30:05.243Z,929.22
2017-12-12T02:31:05.226Z,929.32
2017-12-12T02:32:05.211Z,929.27
2017-12-12T02:33:05.197Z,929.27
2017-12-12T02:34:05.181Z,929.17
2017-12-12T02:35:05.166Z,929.16
2017-12-12T02:36:05.150Z,929.17
2017-12-12T02:37:05.153Z,929.24
2017-12-12T02:38:05.119Z,929.2
2017-12-12T02:39:05.104Z,929.12
2017-12-12T02:40:05.090Z,929.15
2017-12-12T02:41:05.074Z,929.28
2017-12-12T02:42:05.060Z,929.23
2017-12-12T02:43:05.046Z,929.27
2017-12-12T02:44:05.029Z,929.3
2017-12-12T02:45:05.013Z,929.19
2017-12-12T02:46:05.009Z,929.32
2017-12-12T02:47:05.022Z,929.44
2017-12-12T02:48:04.968Z,929.49
2017-12-12T02:49:04.958Z,929.5
2017-12-12T02:50:04.936Z,929.55
2017-12-12T02:51:04.922Z,929.61
2017-12-12T02:52:04.906Z,929.63
2017-12-12T02:53:04.891Z,929.68
2017-12-12T02:54:04.875Z,929.73
2017-12-12T02:55:04.861Z,929.71
2017-12-12T02:56:04.844Z,929.57
2017-12-12T02:57:04.829Z,929.71
2017-12-12T02:58:04.815Z,929.62
2017-12-12T02:59:04.800Z,929.78
2017-12-12T03:00:04.782Z,929.76
2017-12-12T03:01:04.768Z,929.64
2017-12-12T03:02:04.759Z,929.71
2017-12-12T03:03:04.738Z,929.55
2017-12-12T03:04:04.721Z,929.65
2017-12-12T03:05:04.705Z,929.61
2017-12-12T03:06:04.691Z,929.61
2017-12-12T03:07:04.676Z,929.54
2017-12-12T03:08:04.725Z,929.54
2017-12-12T03:09:04.696Z,929.51
2017-12-12T03:10:04.629Z,929.57
2017-12-12T03:11:04.612Z,929.57
2017-12-12T03:12:04.598Z,929.69
2017-12-12T03:13:04.583Z,929.63
2017-12-12T03:14:04.567Z,929.63
2017-12-12T03:15:04.552Z,929.65
2017-12-12T03:16:04.536Z,929.67
2017-12-12T03:17:04.525Z,929.78
2017-12-12T03:18:04.505Z,929.89
2017-12-12T03:19:04.490Z,929.81
2017-12-12T03:20:04.475Z,929.85
2017-12-12T03:21:04.461Z,929.88
2017-12-12T03:22:04.444Z,929.92
2017-12-12T03:23:04.430Z,930.06
2017-12-12T03:24:04.414Z,930.11
2017-12-12T03:25:04.400Z,930.11
2017-12-12T03:26:04.391Z,930.1
2017-12-12T03:27:04.368Z,930.1
2017-12-12T03:28:04.352Z,930.15
2017-12-12T03:29:04.337Z,930.05
2017-12-12T03:30:04.329Z,930.05
2017-12-12T03:31:04.308Z,930.12
2017-12-12T03:32:04.290Z,930.05
2017-12-12T03:33:04.274Z,929.95
2017-12-12T03:34:04.260Z,929.92
2017-12-12T03:35:04.243Z,930
2017-12-12T03:36:04.235Z,929.98
2017-12-12T03:37:04.212Z,929.98
2017-12-12T03:38:04.197Z,930.04
2017-12-12T03:39:04.187Z,930.12
2017-12-12T03:40:04.184Z,930.15
2017-12-12T03:41:04.152Z,930.14
2017-12-12T03:42:04.136Z,930.23
2017-12-12T03:43:04.124Z,930.35
2017-12-12T03:44:04.124Z,930.29
2017-12-12T03:45:04.089Z,930.38
2017-12-12T03:46:04.075Z,930.25
2017-12-12T03:47:04.060Z,930.25
2017-12-12T03:48:04.044Z,930.33
2017-12-12T03:49:04.028Z,930.41
2017-12-12T03:50:04.012Z,930.38
2017-12-12T03:51:03.996Z,930.43
2017-12-12T03:52:03.981Z,930.49
2017-12-12T03:53:03.965Z,930.53
2017-12-12T03:54:03.951Z,930.55
2017-12-12T03:55:03.935Z,930.35
2017-12-12T03:56:03.917Z,930.28
2017-12-12T03:57:03.905Z,930.29
2017-12-12T03:58:03.888Z,930.23
2017-12-12T03:59:03.871Z,930.24
2017-12-12T04:00:03.858Z,930.33
2017-12-12T04:01:03.840Z,930.35
2017-12-12T04:02:03.825Z,930.33
2017-12-12T04:03:03.811Z,930.45
2017-12-12T04:04:03.794Z,930.68
2017-12-12T04:05:03.778Z,930.65
2017-12-12T04:06:03.763Z,930.7
2017-12-12T04:07:03.747Z,930.83
2017-12-12T04:08:03.732Z,930.88
2017-12-12T04:09:03.716Z,930.9
2017-12-12T04:10:03.701Z,930.95
2017-12-12T04:11:03.685Z,931
2017-12-12T04:12:03.674Z,930.97
2017-12-12T04:13:03.653Z,930.97
2017-12-12T04:14:03.639Z,930.94
2017-12-12T04:15:03.623Z,930.89
2017-12-12T04:16:03.612Z,930.84
2017-12-12T04:17:03.591Z,930.96
2017-12-12T04:18:03.576Z,930.87
2017-12-12T04:19:03.582Z,930.82
2017-12-12T04:20:03.546Z,930.85
2017-12-12T04:21:03.529Z,930.79
2017-12-12T04:22:03.514Z,930.89
2017-12-12T04:23:03.500Z,930.84
2017-12-12T04:24:03.483Z,930.97
2017-12-12T04:25:03.468Z,930.79
2017-12-12T04:26:03.453Z,931.05
2017-12-12T04:27:03.441Z,931
2017-12-12T04:28:03.421Z,931.02
2017-12-12T04:29:03.406Z,931.12
2017-12-12T04:30:03.431Z,931.08
2017-12-12T04:31:03.374Z,931.05
2017-12-12T04:32:03.359Z,931.03
2017-12-12T04:33:03.345Z,930.87
2017-12-12T04:34:03.331Z,931.01
2017-12-12T04:35:03.313Z,931.02
2017-12-12T04:36:03.297Z,931.16
2017-12-12T04:37:03.282Z,931.08
2017-12-12T04:38:03.267Z,931.12
2017-12-12T04:39:03.251Z,931.03
2017-12-12T04:40:03.236Z,931.19
2017-12-12T04:41:03.219Z,931.3
2017-12-12T04:42:03.206Z,931.18
2017-12-12T04:43:03.188Z,931.29
2017-12-12T04:44:03.174Z,931.16
2017-12-12T04:45:03.158Z,931.4
2017-12-12T04:46:03.207Z,931.28
2017-12-12T04:47:03.125Z,931.33
2017-12-12T04:48:03.112Z,931.42
2017-12-12T04:49:03.096Z,931.34
2017-12-12T04:50:03.080Z,931.37
2017-12-12T04:51:03.064Z,931.39
2017-12-12T04:52:03.055Z,931.41
2017-12-12T04:53:03.033Z,931.46
2017-12-12T04:54:03.017Z,931.48
2017-12-12T04:55:03.002Z,931.47
2017-12-12T04:56:02.989Z,931.41
2017-12-12T04:57:02.971Z,931.47
2017-12-12T04:58:02.956Z,931.3
2017-12-12T04:59:02.942Z,931.34
2017-12-12T05:00:02.931Z,931.42
2017-12-12T05:01:02.909Z,931.43
2017-12-12T05:02:02.898Z,931.6
2017-12-12T05:03:02.881Z,931.54
2017-12-12T05:04:02.866Z,931.77
2017-12-12T05:05:02.848Z,931.65
2017-12-12T05:06:02.835Z,931.71
2017-12-12T05:07:02.817Z,931.67
2017-12-12T05:08:02.800Z,931.66
2017-12-12T05:09:02.786Z,931.76
2017-12-12T05:10:02.771Z,931.76
2017-12-12T05:11:02.755Z,931.81
2017-12-12T05:12:02.738Z,931.83
2017-12-12T05:13:02.724Z,931.88
2017-12-12T05:14:02.708Z,931.82
2017-12-12T05:15:02.705Z,931.92
2017-12-12T05:16:02.676Z,931.93
2017-12-12T05:17:02.660Z,931.86
2017-12-12T05:18:02.646Z,931.97
2017-12-12T05:19:02.628Z,931.95
2017-12-12T05:20:02.614Z,931.92
2017-12-12T05:21:02.597Z,932.03
2017-12-12T05:22:02.583Z,931.98
2017-12-12T05:23:02.567Z,932.03
2017-12-12T05:24:02.551Z,931.96
2017-12-12T05:25:02.550Z,932.04
2017-12-12T05:26:02.518Z,932.19
2017-12-12T05:27:02.505Z,932.15
2017-12-12T05:28:02.488Z,932.24
2017-12-12T05:29:02.473Z,932.24
2017-12-12T05:30:02.457Z,932.33
2017-12-12T05:31:02.441Z,932.33
2017-12-12T05:32:02.431Z,932.42
2017-12-12T05:33:02.409Z,932.4
2017-12-12T05:34:02.394Z,932.47
2017-12-12T05:35:02.378Z,932.56
2017-12-12T05:36:02.362Z,932.46
2017-12-12T05:37:02.347Z,932.59
2017-12-12T05:38:02.331Z,932.64
2017-12-12T05:39:02.315Z,932.81
2017-12-12T05:40:02.300Z,932.66
2017-12-12T05:41:02.283Z,932.78
2017-12-12T05:42:02.277Z,932.85
2017-12-12T05:43:02.252Z,932.61
2017-12-12T05:44:02.238Z,932.78
2017-12-12T05:45:02.221Z,932.9
2017-12-12T05:46:02.205Z,932.75
2017-12-12T05:47:02.188Z,932.89
2017-12-12T05:48:02.176Z,932.87
2017-12-12T05:49:02.156Z,933.04
2017-12-12T05:50:02.143Z,932.99
2017-12-12T05:51:02.125Z,933.04
2017-12-12T05:52:02.110Z,932.91
2017-12-12T05:53:02.094Z,933.07
2017-12-12T05:54:02.077Z,933.1
2017-12-12T05:55:02.062Z,933.33
2017-12-12T05:56:02.047Z,933.35
2017-12-12T05:57:02.033Z,933.11
2017-12-12T05:58:02.016Z,933.29
2017-12-12T05:59:01.999Z,933.23
2017-12-12T06:00:01.982Z,933.21
2017-12-12T06:01:01.967Z,933.36
2017-12-12T06:02:01.951Z,933.47
2017-12-12T06:03:01.950Z,933.5
2017-12-12T06:04:01.920Z,933.52
2017-12-12T06:05:01.904Z,933.59
2017-12-12T06:06:01.889Z,933.63
2017-12-12T06:07:01.872Z,933.71
2017-12-12T06:08:01.856Z,933.66
2017-12-12T06:09:01.840Z,933.68
2017-12-12T06:10:01.824Z,933.78
2017-12-12T06:11:01.809Z,933.81
2017-12-12T06:12:01.791Z,933.9
2017-12-12T06:13:01.776Z,934.02
2017-12-12T06:14:01.759Z,934.15
2017-12-12T06:15:01.745Z,934.06
2017-12-12T06:16:01.729Z,934.08
2017-12-12T06:17:01.712Z,934.12
2017-12-12T06:18:01.697Z,934.03
2017-12-12T06:19:01.680Z,934.17
2017-12-12T06:20:01.665Z,934.28
2017-12-12T06:21:01.660Z,934.2
2017-12-12T06:22:01.632Z,934.14
2017-12-12T06:23:01.619Z,934.28
2017-12-12T06:24:01.600Z,934.34
2017-12-12T06:25:01.582Z,934.39
2017-12-12T06:26:01.593Z,934.43
2017-12-12T06:27:01.551Z,934.44
2017-12-12T06:28:01.533Z,934.49
2017-12-12T06:29:01.537Z,934.54
2017-12-12T06:30:01.504Z,934.56
2017-12-12T06:31:01.484Z,934.59
2017-12-12T06:32:01.467Z,934.68
2017-12-12T06:33:01.451Z,934.8
2017-12-12T06:34:01.435Z,934.77
2017-12-12T06:35:01.437Z,934.88
2017-12-12T06:36:01.401Z,934.84
2017-12-12T06:37:01.385Z,934.84
2017-12-12T06:38:01.371Z,934.86
2017-12-12T06:39:01.351Z,934.97
2017-12-12T06:40:01.355Z,934.98
2017-12-12T06:41:01.317Z,935.04
2017-12-12T06:42:01.302Z,934.97
2017-12-12T06:43:01.284Z,935.06
2017-12-12T06:44:01.269Z,935.38
2017-12-12T06:45:01.251Z,935.35
2017-12-12T06:46:01.234Z,935.35
2017-12-12T06:47:01.218Z,935.33
2017-12-12T06:48:01.200Z,935.34
2017-12-12T06:49:01.185Z,935.55
2017-12-12T06:50:01.167Z,935.48
2017-12-12T06:51:01.149Z,935.37
2017-12-12T06:52:01.133Z,935.49
2017-12-12T06:53:01.127Z,935.47
2017-12-12T06:54:01.100Z,935.44
2017-12-12T06:55:01.082Z,935.36
2017-12-12T06:56:01.085Z,935.5
2017-12-12T06:57:01.050Z,935.48
2017-12-12T06:58:01.031Z,935.52
2017-12-12T06:59:01.014Z,935.52
2017-12-12T07:00:00.999Z,935.59
2017-12-12T07:01:00.981Z,935.67
2017-12-12T07:02:00.964Z,935.56
2017-12-12T07:03:00.946Z,935.81
2017-12-12T07:04:00.930Z,935.88
2017-12-12T07:05:00.915Z,935.83
2017-12-12T07:06:00.895Z,935.87
2017-12-12T07:07:00.878Z,935.94
2017-12-12T07:08:00.863Z,935.84
2017-12-12T07:09:00.857Z,935.89
2017-12-12T07:10:00.826Z,936.01
2017-12-12T07:11:00.826Z,936.09
2017-12-12T07:12:00.796Z,936.05
2017-12-12T07:13:00.776Z,936.02
2017-12-12T07:14:00.758Z,935.96
2017-12-12T07:15:00.742Z,936.16
2017-12-12T07:16:00.725Z,936.21
2017-12-12T07:17:00.706Z,936.26
2017-12-12T07:18:00.690Z,936.22
2017-12-12T07:19:00.672Z,936.39
2017-12-12T07:20:00.675Z,936.43
2017-12-12T07:21:00.639Z,936.49
2017-12-12T07:22:00.620Z,936.53
2017-12-12T07:23:00.603Z,936.52
2017-12-12T07:24:00.587Z,936.61
2017-12-12T07:25:00.569Z,936.66
2017-12-12T07:26:00.553Z,936.62
2017-12-12T07:27:00.535Z,936.61
2017-12-12T07:28:00.520Z,936.82
2017-12-12T07:29:00.500Z,936.8
2017-12-12T07:30:00.482Z,936.89
2017-12-12T07:31:00.466Z,936.93
2017-12-12T07:32:00.449Z,937.1
2017-12-12T07:33:00.431Z,937.04
2017-12-12T07:34:00.413Z,937.02
2017-12-12T07:35:00.397Z,937.18
2017-12-12T07:36:00.380Z,937.07
2017-12-12T07:37:00.379Z,937.05
2017-12-12T07:38:00.345Z,937
2017-12-12T07:39:00.327Z,937.16
2017-12-12T07:40:00.354Z,937.14
2017-12-12T07:41:00.293Z,937.11
2017-12-12T07:42:00.275Z,937.19
2017-12-12T07:43:00.258Z,937.28
2017-12-12T07:44:00.242Z,937.23
2017-12-12T07:45:00.222Z,937.32
2017-12-12T07:46:00.228Z,937.34
2017-12-12T07:47:00.189Z,937.35
2017-12-12T07:48:00.172Z,937.38
2017-12-12T07:49:00.153Z,937.52
2017-12-12T07:50:00.136Z,937.57
2017-12-12T07:51:00.118Z,937.53
2017-12-12T07:52:00.100Z,937.51
2017-12-12T07:53:00.086Z,937.57
2017-12-12T07:54:00.067Z,937.59
2017-12-12T07:55:00.048Z,937.54
2017-12-12T07:56:00.031Z,937.53
2017-12-12T07:57:00.015Z,937.68
2017-12-12T07:57:59.996Z,937.58
2017-12-12T07:58:59.979Z,937.71
2017-12-12T07:59:59.963Z,937.7
2017-12-12T08:00:59.944Z,937.54
2017-12-12T08:01:59.928Z,937.79
2017-12-12T08:02:59.909Z,937.79
2017-12-12T08:03:59.891Z,937.89
2017-12-12T08:04:59.880Z,937.79
2017-12-12T08:05:59.858Z,937.94
2017-12-12T08:06:59.840Z,937.94
2017-12-12T08:07:59.839Z,938.04
2017-12-12T08:08:59.806Z,938.07
2017-12-12T08:09:59.788Z,938.05
2017-12-12T08:10:59.769Z,937.87
2017-12-12T08:11:59.752Z,938.22
2017-12-12T08:12:59.735Z,938.14
2017-12-12T08:13:59.718Z,938.16
2017-12-12T08:14:59.707Z,938.33
2017-12-12T08:15:59.683Z,938.41
2017-12-12T08:16:59.666Z,938.47
2017-12-12T08:17:59.647Z,938.43
2017-12-12T08:18:59.629Z,938.68
2017-12-12T08:19:59.613Z,938.68
2017-12-12T08:20:59.595Z,938.79
2017-12-12T08:21:59.577Z,938.82
2017-12-12T08:22:59.561Z,938.85
2017-12-12T08:23:59.543Z,938.96
2017-12-12T08:24:59.524Z,938.82
2017-12-12T08:25:59.508Z,938.93
2017-12-12T08:26:59.519Z,938.99
2017-12-12T08:27:59.472Z,939.01
2017-12-12T08:28:59.456Z,939.05
2017-12-12T08:29:59.438Z,939.09
2017-12-12T08:30:59.423Z,939.07
2017-12-12T08:31:59.403Z,939.09
2017-12-12T08:32:59.384Z,939.19
2017-12-12T08:33:59.391Z,939.24
2017-12-12T08:34:59.350Z,939.28
2017-12-12T08:35:59.332Z,939.3
2017-12-12T08:36:59.315Z,939.22
2017-12-12T08:37:59.297Z,939.33
2017-12-12T08:38:59.281Z,939.41
2017-12-12T08:39:59.284Z,939.5
2017-12-12T08:40:59.245Z,939.41
2017-12-12T08:41:59.228Z,939.64
2017-12-12T08:42:59.212Z,939.58
2017-12-12T08:43:59.193Z,939.63
2017-12-12T08:44:59.176Z,939.62
2017-12-12T08:45:59.159Z,939.62
2017-12-12T08:46:59.139Z,939.73
2017-12-12T08:47:59.123Z,939.68
2017-12-12T08:48:59.106Z,939.82
2017-12-12T08:49:59.088Z,939.85
2017-12-12T08:50:59.076Z,939.73
2017-12-12T08:51:59.054Z,939.78
2017-12-12T08:52:59.035Z,939.69
2017-12-12T08:53:59.020Z,939.61
2017-12-12T08:54:59.001Z,939.8
2017-12-12T08:55:58.982Z,939.77
2017-12-12T08:56:58.966Z,939.84
2017-12-12T08:57:58.947Z,939.83
2017-12-12T08:58:58.930Z,939.91
2017-12-12T08:59:58.913Z,939.99
2017-12-12T09:00:58.894Z,940.03
2017-12-12T09:01:58.878Z,940.01
2017-12-12T09:02:58.859Z,940.05
2017-12-12T09:03:58.844Z,940.06
2017-12-12T09:04:58.829Z,940.16
2017-12-12T09:05:58.808Z,940.15
2017-12-12T09:06:58.791Z,940.18
2017-12-12T09:07:58.774Z,940.25
2017-12-12T09:08:58.756Z,940.25
2017-12-12T09:09:58.742Z,940.27
2017-12-12T09:10:58.721Z,940.29
2017-12-12T09:11:58.710Z,940.34
2017-12-12T09:12:58.688Z,940.42
2017-12-12T09:13:58.670Z,940.54
2017-12-12T09:14:58.654Z,940.54
2017-12-12T09:15:58.634Z,940.59
2017-12-12T09:16:58.616Z,940.67
2017-12-12T09:17:58.599Z,940.75
2017-12-12T09:18:58.638Z,940.69
2017-12-12T09:19:58.564Z,940.73
2017-12-12T09:20:58.546Z,940.86
2017-12-12T09:21:58.533Z,940.86
2017-12-12T09:22:58.513Z,940.86
2017-12-12T09:23:58.494Z,940.93
2017-12-12T09:24:58.478Z,941.01
2017-12-12T09:25:58.459Z,940.94
2017-12-12T09:26:58.441Z,940.96
2017-12-12T09:27:58.425Z,941.02
2017-12-12T09:28:58.408Z,941.13
2017-12-12T09:29:58.390Z,941.06
2017-12-12T09:30:58.376Z,941.09
2017-12-12T09:31:58.355Z,941.14
2017-12-12T09:32:58.337Z,941.22
2017-12-12T09:33:58.321Z,941.2
2017-12-12T09:34:58.304Z,941.18
2017-12-12T09:35:58.287Z,941.25
2017-12-12T09:36:58.267Z,941.31
2017-12-12T09:37:58.251Z,941.32
2017-12-12T09:38:58.234Z,941.36
2017-12-12T09:39:58.219Z,941.28
2017-12-12T09:40:58.198Z,941.38
2017-12-12T09:41:58.181Z,941.37
2017-12-12T09:42:58.164Z,941.41
2017-12-12T09:43:58.148Z,941.41
2017-12-12T09:44:58.129Z,941.5
2017-12-12T09:45:58.113Z,941.52
2017-12-12T09:46:58.094Z,941.49
2017-12-12T09:47:58.078Z,941.48
2017-12-12T09:48:58.059Z,941.53
2017-12-12T09:49:58.044Z,941.49
2017-12-12T09:50:58.026Z,941.57
2017-12-12T09:51:58.009Z,941.47
2017-12-12T09:52:57.991Z,941.48
2017-12-12T09:53:57.973Z,941.44
2017-12-12T09:54:57.956Z,941.44
2017-12-12T09:55:57.943Z,941.45
2017-12-12T09:56:57.920Z,941.39
2017-12-12T09:57:57.904Z,941.44
2017-12-12T09:58:57.896Z,941.41
2017-12-12T09:59:57.869Z,941.55
2017-12-12T10:00:57.852Z,941.6
2017-12-12T10:01:57.834Z,941.55
2017-12-12T10:02:57.817Z,941.59
2017-12-12T10:03:57.800Z,941.63
2017-12-12T10:04:57.783Z,941.64
2017-12-12T10:05:57.765Z,941.63
2017-12-12T10:06:57.751Z,941.64
2017-12-12T10:07:57.729Z,941.71
2017-12-12T10:08:57.715Z,941.64
2017-12-12T10:09:57.710Z,941.7
2017-12-12T10:10:57.678Z,941.68
2017-12-12T10:11:57.663Z,941.77
2017-12-12T10:12:57.644Z,941.8
2017-12-12T10:13:57.627Z,941.8
2017-12-12T10:14:57.609Z,941.81
2017-12-12T10:15:57.591Z,941.78
2017-12-12T10:16:57.574Z,941.79
2017-12-12T10:17:57.557Z,941.83
2017-12-12T10:18:57.539Z,941.71
2017-12-12T10:19:57.523Z,941.75
2017-12-12T10:20:57.504Z,941.75
2017-12-12T10:21:57.486Z,941.76
2017-12-12T10:22:57.470Z,941.81
2017-12-12T10:23:57.452Z,941.85
2017-12-12T10:24:57.436Z,941.82
2017-12-12T10:25:57.417Z,941.89
2017-12-12T10:26:57.399Z,941.83
2017-12-12T10:27:57.382Z,941.85
2017-12-12T10:28:57.366Z,941.92
2017-12-12T10:29:57.349Z,941.9
2017-12-12T10:30:57.329Z,941.94
2017-12-12T10:31:57.313Z,941.97
2017-12-12T10:32:57.294Z,941.96
2017-12-12T10:33:57.278Z,941.92
2017-12-12T10:34:57.263Z,942.01
2017-12-12T10:35:57.244Z,942.03
2017-12-12T10:36:57.226Z,942.01
2017-12-12T10:37:57.209Z,942.09
2017-12-12T10:38:57.191Z,942.1
2017-12-12T10:39:57.174Z,942.05
2017-12-12T10:40:57.157Z,942.11
2017-12-12T10:41:57.140Z,942.11
2017-12-12T10:42:57.124Z,942.06
2017-12-12T10:43:57.104Z,942.08
2017-12-12T10:44:57.087Z,942.13
2017-12-12T10:45:57.069Z,942
2017-12-12T10:46:57.054Z,942.14
2017-12-12T10:47:57.034Z,942.1
2017-12-12T10:48:57.018Z,942.07
2017-12-12T10:49:57.000Z,942.07
2017-12-12T10:50:56.998Z,942.07
2017-12-12T10:51:56.964Z,942.07
2017-12-12T10:52:56.947Z,942.12
2017-12-12T10:53:56.932Z,942.03
2017-12-12T10:54:56.913Z,942.07
2017-12-12T10:55:56.906Z,942.08
2017-12-12T10:56:56.879Z,942.1
2017-12-12T10:57:56.884Z,942.16
2017-12-12T10:58:56.844Z,942.1
2017-12-12T10:59:56.826Z,942.1
2017-12-12T11:00:56.809Z,942.14
2017-12-12T11:01:56.790Z,942.11
2017-12-12T11:02:56.773Z,942.22
2017-12-12T11:03:56.756Z,942.2
2017-12-12T11:04:56.739Z,942.18
2017-12-12T11:05:56.722Z,942.22
2017-12-12T11:06:56.704Z,942.27
2017-12-12T11:07:56.689Z,942.2
2017-12-12T11:08:56.670Z,942.3
2017-12-12T11:09:56.676Z,942.26
2017-12-12T11:10:56.636Z,942.32
2017-12-12T11:11:56.622Z,942.34
2017-12-12T11:12:56.604Z,942.28
2017-12-12T11:13:56.585Z,942.27
2017-12-12T11:14:56.564Z,942.29
2017-12-12T11:15:56.549Z,942.28
2017-12-12T11:16:56.531Z,942.33
2017-12-12T11:17:56.513Z,942.33
2017-12-12T11:18:56.499Z,942.38
2017-12-12T11:19:56.479Z,942.41
2017-12-12T11:20:56.463Z,942.45
2017-12-12T11:21:56.449Z,942.52
2017-12-12T11:22:56.426Z,942.5
2017-12-12T11:23:56.409Z,942.57
2017-12-12T11:24:56.393Z,942.64
2017-12-12T11:25:56.376Z,942.71
2017-12-12T11:26:56.359Z,942.82
2017-12-12T11:27:56.341Z,942.78
2017-12-12T11:28:56.323Z,942.97
2017-12-12T11:29:56.306Z,942.81
2017-12-12T11:30:56.290Z,942.85
2017-12-12T11:31:56.272Z,942.83
2017-12-12T11:32:56.254Z,942.8
2017-12-12T11:33:56.237Z,942.88
2017-12-12T11:34:56.221Z,942.96
2017-12-12T11:35:56.226Z,942.85
2017-12-12T11:36:56.186Z,942.87
2017-12-12T11:37:56.174Z,942.88
2017-12-12T11:38:56.151Z,942.95
2017-12-12T11:39:56.135Z,943
2017-12-12T11:40:56.118Z,942.95
2017-12-12T11:41:56.102Z,942.96
2017-12-12T11:42:56.087Z,943
2017-12-12T11:43:56.070Z,943.05
2017-12-12T11:44:56.052Z,943.01
2017-12-12T11:45:56.034Z,943.14
2017-12-12T11:46:56.017Z,943.1
2017-12-12T11:47:56.001Z,943.22
2017-12-12T11:48:55.983Z,943.14
2017-12-12T11:49:55.967Z,943.12
2017-12-12T11:50:55.951Z,943.09
2017-12-12T11:51:55.970Z,943.17
2017-12-12T11:52:55.917Z,943.15
2017-12-12T11:53:55.900Z,943.13
2017-12-12T11:54:55.882Z,943.13
2017-12-12T11:55:55.866Z,943.17
2017-12-12T11:56:55.849Z,943.26
2017-12-12T11:57:55.831Z,943.23
2017-12-12T11:58:55.817Z,943.33
2017-12-12T11:59:55.797Z,943.3
2017-12-12T12:00:55.779Z,943.31
2017-12-12T12:01:55.764Z,943.31
2017-12-12T12:02:55.747Z,943.43
2017-12-12T12:03:55.730Z,943.35
2017-12-12T12:04:55.711Z,943.4
2017-12-12T12:05:55.694Z,943.51
2017-12-12T12:06:55.678Z,943.47
2017-12-12T12:07:55.660Z,943.39
2017-12-12T12:08:55.667Z,943.44
2017-12-12T12:09:55.629Z,943.42
2017-12-12T12:10:55.609Z,943.51
2017-12-12T12:11:55.592Z,943.47
2017-12-12T12:12:55.575Z,943.55
2017-12-12T12:13:55.558Z,943.46
2017-12-12T12:14:55.542Z,943.58
2017-12-12T12:15:55.525Z,943.6
2017-12-12T12:16:55.508Z,943.58
2017-12-12T12:17:55.489Z,943.66
2017-12-12T12:18:55.472Z,943.56
2017-12-12T12:19:55.456Z,943.61
2017-12-12T12:20:55.439Z,943.72
2017-12-12T12:21:55.421Z,943.66
2017-12-12T12:22:55.404Z,943.74
2017-12-12T12:23:55.386Z,943.71
2017-12-12T12:24:55.370Z,943.79
2017-12-12T12:25:55.359Z,943.79
2017-12-12T12:26:55.334Z,943.91
2017-12-12T12:27:55.316Z,943.83
2017-12-12T12:28:55.300Z,943.92
2017-12-12T12:29:55.282Z,943.93